Time;durP1;ratioP1;P1;durP2;ratioP2;P2;SDS_P1;SDS_P2;PMS_P1;PMS_P2;Temp;Humidity;BMP_temperature;BMP_pressure;BME280_temperature;BME280_humidity;BME280_pressure;Samples;Min_cycle;Max_cycle;Signal;HPM_P1;HPM_P2
2022/08/24 00:01:35;;;;;;;6.30;3.77;;;18.70;70.60;;;;;;5027971;28;20433;-72
2022/08/24 00:04:21;;;;;;;4.70;4.20;;;18.80;70.60;;;;;;5024338;28;20479;-72
2022/08/24 00:07:07;;;;;;;7.50;3.70;;;18.90;70.60;;;;;;5025164;28;20464;-71
2022/08/24 00:09:53;;;;;;;5.43;3.83;;;18.90;70.10;;;;;;5026175;28;20475;-71
2022/08/24 00:12:39;;;;;;;6.13;3.37;;;18.80;70.30;;;;;;5026879;28;20449;-71
2022/08/24 00:15:24;;;;;;;6.23;3.67;;;18.70;70.00;;;;;;5025322;28;20429;-71
2022/08/24 00:18:12;;;;;;;7.53;3.90;;;18.70;70.00;;;;;;5028235;28;20429;-72
2022/08/24 00:20:57;;;;;;;5.40;3.73;;;18.60;70.80;;;;;;5023124;28;20810;-71
2022/08/24 00:23:44;;;;;;;8.90;3.73;;;18.60;70.90;;;;;;5026255;28;20472;-72
2022/08/24 00:26:29;;;;;;;8.27;3.87;;;18.50;70.60;;;;;;5024488;28;20554;-71
2022/08/24 00:29:17;;;;;;;4.73;3.20;;;18.50;71.10;;;;;;5024881;28;20424;-72
2022/08/24 00:32:03;;;;;;;4.17;3.53;;;18.60;71.00;;;;;;5020816;28;20958;-72
2022/08/24 00:34:51;;;;;;;4.00;3.13;;;18.60;71.10;;;;;;5024699;28;20445;-71
2022/08/24 00:37:37;;;;;;;6.30;4.10;;;18.60;71.10;;;;;;5022879;28;20416;-71
2022/08/24 00:40:26;;;;;;;4.53;2.63;;;18.70;71.30;;;;;;5026977;28;20429;-72
2022/08/24 00:43:12;;;;;;;4.43;3.40;;;18.60;70.90;;;;;;5018494;28;20477;-71
2022/08/24 00:46:09;;;;;;;7.97;4.57;;;18.70;71.20;;;;;;5023622;28;20568;-71
2022/08/24 00:49:03;;;;;;;4.73;3.20;;;18.80;71.30;;;;;;5026851;28;20429;-72
2022/08/24 00:51:57;;;;;;;6.20;3.60;;;18.80;70.50;;;;;;5022210;28;20449;-71
2022/08/24 00:54:47;;;;;;;4.57;3.50;;;18.70;70.60;;;;;;5026246;28;20491;-72
2022/08/24 00:57:38;;;;;;;6.30;3.50;;;18.70;70.90;;;;;;5027025;28;20917;-71
2022/08/24 01:00:27;;;;;;;4.33;3.20;;;18.70;70.50;;;;;;5025824;28;20448;-71
2022/08/24 01:03:13;;;;;;;6.17;3.70;;;18.70;70.20;;;;;;5021934;28;21029;-71
2022/08/24 01:05:59;;;;;;;5.17;3.40;;;18.60;70.70;;;;;;5028899;28;20524;-71
2022/08/24 01:08:46;;;;;;;5.37;3.90;;;18.60;70.80;;;;;;5016609;28;20425;-71
2022/08/24 01:11:33;;;;;;;5.50;3.10;;;18.60;70.60;;;;;;5019810;28;20459;-71
2022/08/24 01:14:23;;;;;;;6.63;3.80;;;18.60;71.20;;;;;;5023352;28;20455;-71
2022/08/24 01:20:13;;;;;;;10.10;3.37;;;18.20;73.10;;;;;;5025946;28;20463;-71
2022/08/24 01:23:05;;;;;;;6.10;2.90;;;18.10;73.10;;;;;;5023753;28;20539;-71
2022/08/24 01:25:52;;;;;;;6.30;3.60;;;18.20;72.60;;;;;;5020567;28;20787;-71
2022/08/24 01:28:40;;;;;;;10.73;3.30;;;18.20;72.00;;;;;;5026760;28;21024;-71
2022/08/24 01:31:26;;;;;;;4.50;3.30;;;18.20;73.10;;;;;;5020912;28;20428;-71
2022/08/24 01:34:12;;;;;;;4.27;3.50;;;18.20;72.80;;;;;;5024083;28;20547;-71
2022/08/24 01:36:59;;;;;;;5.70;3.40;;;18.20;72.50;;;;;;5025305;28;20483;-71
2022/08/24 01:39:47;;;;;;;3.70;3.00;;;18.10;73.00;;;;;;5025778;28;20429;-71
2022/08/24 01:42:34;;;;;;;4.07;3.30;;;18.00;73.00;;;;;;5022356;28;20553;-72
2022/08/24 01:45:20;;;;;;;6.70;3.30;;;17.90;74.10;;;;;;5022311;28;20424;-71
2022/08/24 01:48:06;;;;;;;5.40;3.53;;;18.00;74.10;;;;;;5026784;28;20460;-71
2022/08/24 01:50:52;;;;;;;4.60;2.70;;;18.10;74.10;;;;;;5023254;28;21000;-72
2022/08/24 01:53:38;;;;;;;6.10;3.37;;;18.20;73.50;;;;;;5022855;28;20489;-71
2022/08/24 01:56:23;;;;;;;3.90;3.20;;;18.20;73.10;;;;;;5025392;28;20420;-71
2022/08/24 01:59:12;;;;;;;6.70;3.40;;;18.10;73.00;;;;;;5018379;28;20436;-71
2022/08/24 02:02:06;;;;;;;5.73;2.80;;;18.00;73.00;;;;;;5020383;28;20921;-71
2022/08/24 02:04:51;;;;;;;6.67;4.60;;;18.00;73.40;;;;;;5026462;28;20460;-71
2022/08/24 02:07:37;;;;;;;4.57;3.50;;;18.10;73.00;;;;;;5021112;28;20556;-71
2022/08/24 02:10:23;;;;;;;5.83;3.30;;;18.00;73.00;;;;;;5022892;28;20394;-71
2022/08/24 02:13:08;;;;;;;5.10;3.50;;;18.00;73.30;;;;;;5024032;28;20443;-70
2022/08/24 02:15:56;;;;;;;9.07;3.47;;;17.80;74.20;;;;;;5025224;28;20444;-71
2022/08/24 02:18:42;;;;;;;5.30;4.10;;;17.70;74.30;;;;;;5025460;28;20441;-71
2022/08/24 02:21:28;;;;;;;11.53;3.60;;;17.70;74.70;;;;;;5022716;28;20817;-71
2022/08/24 02:24:14;;;;;;;3.77;2.97;;;17.60;74.80;;;;;;5027094;28;20471;-72
2022/08/24 02:27:01;;;;;;;3.30;2.93;;;17.60;75.40;;;;;;5018971;28;20833;-71
2022/08/24 02:29:47;;;;;;;5.40;3.37;;;17.60;75.30;;;;;;5023003;28;20429;-71
2022/08/24 02:32:33;;;;;;;4.97;3.17;;;17.60;75.80;;;;;;5017708;28;20441;-72
2022/08/24 02:35:19;;;;;;;4.53;3.17;;;17.60;75.30;;;;;;5024115;28;20428;-71
2022/08/24 02:38:05;;;;;;;6.87;3.40;;;17.70;75.10;;;;;;5021077;28;20510;-72
2022/08/24 02:40:51;;;;;;;6.07;3.20;;;17.70;75.30;;;;;;5026788;28;20427;-71
2022/08/24 02:43:36;;;;;;;4.90;3.60;;;17.70;75.00;;;;;;5027079;28;20452;-71
2022/08/24 02:46:24;;;;;;;4.30;3.37;;;17.80;74.60;;;;;;5025655;28;20423;-72
2022/08/24 02:49:11;;;;;;;4.70;3.30;;;17.80;74.50;;;;;;5024224;28;20547;-71
2022/08/24 02:51:57;;;;;;;3.60;3.30;;;17.70;74.70;;;;;;5028136;28;20507;-71
2022/08/24 02:54:42;;;;;;;7.17;3.87;;;17.70;74.80;;;;;;5025113;28;20814;-71
2022/08/24 02:57:28;;;;;;;4.33;3.10;;;17.60;75.20;;;;;;5024103;28;20428;-72
2022/08/24 03:00:19;;;;;;;8.00;3.67;;;17.40;75.90;;;;;;5025093;28;20428;-71
2022/08/24 03:03:05;;;;;;;5.63;2.83;;;17.40;75.90;;;;;;5033070;28;20447;-71
2022/08/24 03:05:52;;;;;;;4.30;3.07;;;17.60;75.40;;;;;;5025959;28;20568;-72
2022/08/24 03:08:38;;;;;;;6.77;3.43;;;17.60;75.20;;;;;;5023179;28;20630;-72
2022/08/24 03:11:24;;;;;;;4.00;2.97;;;17.70;75.00;;;;;;5025232;28;20512;-71
2022/08/24 03:14:10;;;;;;;5.07;3.30;;;17.60;75.10;;;;;;5023438;28;20449;-71
2022/08/24 03:16:56;;;;;;;4.60;3.80;;;17.40;75.60;;;;;;5026435;28;20425;-72
2022/08/24 03:19:42;;;;;;;6.07;3.33;;;17.30;75.90;;;;;;5025794;28;20453;-72
2022/08/24 03:22:29;;;;;;;8.27;3.10;;;17.30;76.50;;;;;;5029064;28;20455;-72
2022/08/24 03:25:17;;;;;;;5.20;3.10;;;17.30;76.20;;;;;;5024420;28;20934;-71
2022/08/24 03:28:03;;;;;;;14.53;3.70;;;17.30;76.40;;;;;;5025237;28;20476;-71
2022/08/24 03:30:50;;;;;;;7.40;3.80;;;17.20;76.80;;;;;;5019897;28;20521;-71
2022/08/24 03:33:35;;;;;;;5.33;3.30;;;17.10;77.20;;;;;;5032082;28;20476;-71
2022/08/24 03:36:21;;;;;;;3.90;3.20;;;17.00;78.10;;;;;;5027981;28;20436;-71
2022/08/24 03:39:08;;;;;;;5.43;3.43;;;16.90;78.80;;;;;;5030799;28;20421;-71
2022/08/24 03:41:54;;;;;;;3.97;3.00;;;17.00;78.80;;;;;;5030026;28;20510;-71
2022/08/24 03:44:41;;;;;;;5.17;3.27;;;17.00;79.00;;;;;;5025432;28;20805;-71
2022/08/24 03:47:26;;;;;;;5.57;3.67;;;16.90;79.20;;;;;;5028034;28;20461;-71
2022/08/24 03:50:12;;;;;;;7.43;3.20;;;16.90;79.90;;;;;;5022589;28;20448;-71
2022/08/24 03:52:58;;;;;;;9.80;3.70;;;16.80;80.10;;;;;;5027147;28;20436;-71
2022/08/24 03:55:45;;;;;;;10.43;3.37;;;16.80;81.10;;;;;;5021007;28;20989;-71
2022/08/24 03:58:31;;;;;;;9.93;3.90;;;16.80;80.40;;;;;;5019872;28;20425;-71
2022/08/24 04:01:17;;;;;;;3.83;3.43;;;16.90;80.60;;;;;;5022404;28;20454;-71
2022/08/24 04:04:04;;;;;;;5.13;3.40;;;16.90;80.20;;;;;;5025733;28;20460;-71
2022/08/24 04:06:50;;;;;;;6.43;4.00;;;17.00;79.80;;;;;;5026616;28;20436;-71
2022/08/24 04:09:35;;;;;;;4.60;3.20;;;16.90;80.00;;;;;;5026116;28;20423;-72
2022/08/24 04:12:23;;;;;;;3.77;3.37;;;16.90;80.70;;;;;;5023788;28;20530;-71
2022/08/24 04:15:09;;;;;;;4.47;3.90;;;16.80;80.50;;;;;;5025699;28;20435;-72
2022/08/24 04:17:55;;;;;;;8.40;3.30;;;17.00;80.30;;;;;;5028223;28;20456;-71
2022/08/24 04:20:43;;;;;;;6.40;2.93;;;17.10;79.80;;;;;;5026693;28;20460;-72
2022/08/24 04:23:29;;;;;;;4.17;3.13;;;17.10;79.30;;;;;;5025292;28;20453;-71
2022/08/24 04:26:15;;;;;;;6.70;3.27;;;17.20;79.20;;;;;;5021520;28;20802;-72
2022/08/24 04:29:02;;;;;;;4.60;3.37;;;17.20;78.70;;;;;;5015988;28;20596;-72
2022/08/24 04:31:48;;;;;;;5.23;3.80;;;17.30;78.40;;;;;;5024511;28;20802;-71
2022/08/24 04:34:34;;;;;;;7.70;3.67;;;17.30;78.40;;;;;;5024705;28;20810;-71
2022/08/24 04:37:20;;;;;;;4.47;3.50;;;17.20;78.60;;;;;;5028062;28;20827;-71
2022/08/24 04:40:07;;;;;;;5.50;3.40;;;17.20;78.30;;;;;;5021097;28;20464;-71
2022/08/24 04:42:53;;;;;;;8.17;4.97;;;17.20;79.10;;;;;;5022139;28;20428;-71
2022/08/24 04:45:41;;;;;;;7.43;4.10;;;17.10;79.40;;;;;;5022071;28;20785;-71
2022/08/24 04:48:27;;;;;;;7.67;3.53;;;16.90;79.60;;;;;;5026631;28;20492;-71
2022/08/24 04:51:16;;;;;;;5.93;3.20;;;16.90;80.60;;;;;;5024518;28;20493;-71
2022/08/24 04:54:02;;;;;;;5.03;3.40;;;17.00;80.50;;;;;;5026958;28;20535;-71
2022/08/24 04:56:48;;;;;;;4.70;2.70;;;17.00;80.40;;;;;;5019821;28;20842;-72
2022/08/24 04:59:33;;;;;;;4.90;3.20;;;17.00;80.20;;;;;;5019345;28;20541;-71
2022/08/24 05:02:21;;;;;;;3.80;2.80;;;17.10;80.70;;;;;;5028625;28;20429;-72
2022/08/24 05:05:08;;;;;;;4.03;3.20;;;17.10;79.90;;;;;;5047361;22;20575;-71
2022/08/24 05:07:54;;;;;;;4.97;3.20;;;17.20;80.10;;;;;;5045300;28;20487;-71
2022/08/24 05:10:42;;;;;;;6.27;3.50;;;17.30;80.90;;;;;;5039220;28;20503;-71
2022/08/24 05:13:27;;;;;;;5.80;3.33;;;17.50;81.10;;;;;;5040945;28;20466;-71
2022/08/24 05:16:16;;;;;;;5.47;3.57;;;17.60;80.70;;;;;;5029864;28;20934;-71
2022/08/24 05:19:05;;;;;;;6.10;3.43;;;17.60;80.20;;;;;;5028515;28;20958;-71
2022/08/24 05:21:51;;;;;;;4.70;3.03;;;17.70;80.20;;;;;;5028786;28;20425;-70
2022/08/24 05:24:37;;;;;;;5.80;3.53;;;17.80;79.80;;;;;;5027104;28;20540;-71
2022/08/24 05:27:23;;;;;;;5.30;3.23;;;17.90;79.90;;;;;;5028712;28;20797;-71
2022/08/24 05:30:10;;;;;;;6.03;3.03;;;17.90;80.10;;;;;;5025659;28;20448;-71
2022/08/24 05:32:55;;;;;;;3.50;3.00;;;17.90;79.60;;;;;;5028730;28;20593;-71
2022/08/24 05:35:42;;;;;;;4.63;2.50;;;17.90;79.10;;;;;;5017251;28;21049;-71
2022/08/24 05:38:28;;;;;;;4.40;3.20;;;18.10;78.90;;;;;;5034080;28;20776;-71
2022/08/24 05:41:14;;;;;;;4.70;3.00;;;18.20;78.40;;;;;;5032024;28;20420;-71
2022/08/24 05:44:00;;;;;;;5.43;3.63;;;18.30;77.90;;;;;;5022850;28;20954;-71
2022/08/24 05:46:46;;;;;;;5.67;3.13;;;18.40;78.00;;;;;;5040340;28;20439;-71
2022/08/24 05:49:32;;;;;;;3.90;3.07;;;18.50;78.90;;;;;;5024019;28;20522;-71
2022/08/24 05:52:19;;;;;;;9.60;3.50;;;18.60;79.50;;;;;;5027657;28;20941;-71
2022/08/24 05:55:06;;;;;;;7.43;3.10;;;18.60;78.70;;;;;;5024373;28;20441;-71
2022/08/24 05:57:52;;;;;;;5.40;2.90;;;18.80;79.20;;;;;;5024293;28;20429;-71
2022/08/24 06:00:38;;;;;;;6.77;2.97;;;18.90;79.70;;;;;;5026651;28;20432;-71
2022/08/24 06:03:23;;;;;;;4.23;3.40;;;18.90;79.20;;;;;;5025321;28;20429;-71
2022/08/24 06:06:10;;;;;;;4.43;3.13;;;19.00;79.20;;;;;;5026658;28;20436;-71
2022/08/24 06:08:59;;;;;;;9.17;3.13;;;19.10;78.90;;;;;;5024533;28;20604;-71
2022/08/24 06:11:46;;;;;;;9.67;3.30;;;19.20;78.60;;;;;;5023771;28;20424;-70
2022/08/24 06:14:33;;;;;;;9.10;3.30;;;19.40;77.80;;;;;;5025132;28;20444;-71
2022/08/24 06:17:19;;;;;;;4.00;3.03;;;19.50;77.50;;;;;;5023707;28;20431;-71
2022/08/24 06:20:06;;;;;;;11.27;3.47;;;19.50;77.80;;;;;;5023172;28;20460;-71
2022/08/24 06:22:52;;;;;;;9.83;3.17;;;19.60;77.90;;;;;;5019736;28;20429;-71
2022/08/24 06:28:45;;;;;;;4.67;3.00;;;19.80;77.10;;;;;;5007771;28;20451;-70
2022/08/24 06:31:35;;;;;;;4.07;3.17;;;19.90;76.50;;;;;;5027509;28;20440;-71
2022/08/24 06:34:21;;;;;;;6.67;3.20;;;20.00;74.60;;;;;;5025306;28;20961;-71
2022/08/24 06:37:06;;;;;;;8.23;3.03;;;20.10;74.70;;;;;;5017930;28;20929;-71
2022/08/24 06:39:52;;;;;;;3.50;2.90;;;20.20;75.40;;;;;;5024156;28;20947;-70
2022/08/24 06:42:40;;;;;;;5.17;3.30;;;20.30;75.60;;;;;;5026350;28;20653;-71
2022/08/24 06:45:25;;;;;;;4.23;2.90;;;20.30;76.00;;;;;;5025886;28;20447;-71
2022/08/24 06:48:11;;;;;;;5.23;2.97;;;20.40;75.50;;;;;;5023069;28;20472;-70
2022/08/24 06:50:57;;;;;;;7.40;2.70;;;20.40;74.90;;;;;;5019708;28;20512;-70
2022/08/24 06:53:43;;;;;;;4.27;2.77;;;20.50;75.00;;;;;;5024402;28;20969;-71
2022/08/24 06:56:29;;;;;;;5.20;3.90;;;20.60;73.60;;;;;;5024083;28;20619;-71
2022/08/24 06:59:16;;;;;;;8.50;2.97;;;20.70;69.60;;;;;;5019089;28;20953;-71
2022/08/24 07:02:02;;;;;;;5.33;3.00;;;20.80;71.90;;;;;;5029433;28;20424;-71
2022/08/24 07:04:48;;;;;;;5.30;3.10;;;20.90;69.70;;;;;;5029554;28;20460;-71
2022/08/24 07:07:33;;;;;;;4.37;2.97;;;21.00;67.60;;;;;;5022430;28;20595;-71
2022/08/24 07:10:19;;;;;;;6.43;2.60;;;21.10;69.20;;;;;;5025767;28;20432;-71
2022/08/24 07:13:05;;;;;;;5.30;2.73;;;21.20;69.30;;;;;;5023358;28;21021;-71
2022/08/24 07:15:53;;;;;;;4.47;3.00;;;21.30;70.50;;;;;;5026552;28;20980;-71
2022/08/24 07:18:39;;;;;;;4.30;2.40;;;21.40;69.60;;;;;;5020866;28;20444;-71
2022/08/24 07:21:24;;;;;;;6.97;2.70;;;21.70;67.80;;;;;;5022058;28;20858;-71
2022/08/24 07:24:10;;;;;;;7.47;2.50;;;21.80;67.20;;;;;;5027703;28;20452;-71
2022/08/24 07:26:56;;;;;;;6.23;3.20;;;21.90;66.50;;;;;;5028745;28;20506;-72
2022/08/24 07:29:41;;;;;;;4.80;2.50;;;22.00;66.60;;;;;;5031709;28;20525;-71
2022/08/24 07:32:28;;;;;;;7.20;2.90;;;22.20;67.10;;;;;;5028418;28;20801;-71
2022/08/24 07:35:14;;;;;;;4.20;2.30;;;22.30;66.10;;;;;;5029730;28;21093;-71
2022/08/24 07:38:01;;;;;;;3.70;2.30;;;22.30;66.80;;;;;;5024749;28;20607;-71
2022/08/24 07:40:47;;;;;;;4.10;2.27;;;22.50;64.30;;;;;;5027838;28;20419;-71
2022/08/24 07:43:33;;;;;;;4.10;2.03;;;22.60;63.90;;;;;;5025744;28;20437;-71
2022/08/24 07:46:19;;;;;;;6.37;2.40;;;22.60;63.70;;;;;;5029171;28;20795;-71
2022/08/24 07:49:06;;;;;;;7.40;2.30;;;22.70;63.80;;;;;;5026991;28;20467;-71
2022/08/24 07:51:52;;;;;;;8.23;2.63;;;22.70;65.10;;;;;;5027781;28;20797;-71
2022/08/24 07:54:37;;;;;;;3.90;2.30;;;22.80;64.70;;;;;;5028230;28;20595;-72
2022/08/24 07:57:24;;;;;;;3.80;2.87;;;22.90;64.40;;;;;;5028516;28;20564;-71
2022/08/24 08:00:13;;;;;;;4.67;2.17;;;22.90;60.40;;;;;;5025003;28;20437;-71
2022/08/24 08:03:01;;;;;;;3.80;2.03;;;23.00;59.40;;;;;;5029589;28;20573;-71
2022/08/24 08:05:49;;;;;;;8.97;2.83;;;23.10;56.60;;;;;;5028266;28;20436;-71
2022/08/24 08:08:36;;;;;;;4.80;2.97;;;23.30;56.80;;;;;;5027229;28;20463;-70
2022/08/24 08:11:22;;;;;;;2.93;2.27;;;23.40;59.20;;;;;;5029611;28;20425;-70
2022/08/24 08:14:08;;;;;;;3.03;2.00;;;23.60;57.90;;;;;;5027707;28;20985;-71
2022/08/24 08:16:53;;;;;;;8.90;2.40;;;23.70;50.60;;;;;;5025674;28;20465;-71
2022/08/24 08:19:39;;;;;;;7.40;2.27;;;23.90;49.50;;;;;;5027709;28;20554;-71
2022/08/24 08:25:31;;;;;;;7.10;2.40;;;24.10;46.60;;;;;;5027475;28;20444;-71
2022/08/24 08:28:17;;;;;;;3.57;1.90;;;24.30;43.60;;;;;;5026808;28;20430;-72
2022/08/24 08:31:04;;;;;;;4.43;2.33;;;24.50;41.90;;;;;;5030269;28;20429;-71
2022/08/24 08:33:50;;;;;;;6.80;2.33;;;24.60;41.00;;;;;;5026566;28;20527;-71
2022/08/24 08:36:38;;;;;;;2.93;1.93;;;24.80;39.40;;;;;;5024271;28;20441;-71
2022/08/24 08:39:26;;;;;;;3.43;2.13;;;24.90;39.40;;;;;;5025263;28;20425;-71
2022/08/24 08:42:29;;;;;;;2.93;2.10;;;25.00;39.40;;;;;;5027483;28;20487;-71
2022/08/24 08:45:25;;;;;;;4.20;2.03;;;25.20;39.40;;;;;;5023107;28;20448;-72
2022/08/24 08:48:40;;;;;;;5.07;2.47;;;25.30;37.30;;;;;;5022021;28;20444;-71
2022/08/24 08:52:18;;;;;;;14.53;2.87;;;25.30;34.30;;;;;;5027732;28;20428;-72
2022/08/24 08:55:25;;;;;;;7.63;2.33;;;25.40;32.70;;;;;;5000878;28;20813;-71
2022/08/24 08:58:23;;;;;;;4.40;2.10;;;25.50;32.00;;;;;;5020151;28;20505;-72
2022/08/24 09:01:18;;;;;;;5.27;2.40;;;25.60;31.00;;;;;;5023709;28;20795;-71
2022/08/24 09:04:36;;;;;;;3.87;2.30;;;25.70;31.10;;;;;;5025069;28;20591;-71
2022/08/24 09:07:33;;;;;;;7.43;2.40;;;25.90;32.30;;;;;;5021100;28;20961;-72
2022/08/24 09:10:37;;;;;;;3.40;2.40;;;26.00;30.10;;;;;;5027074;28;20472;-71
2022/08/24 09:13:34;;;;;;;4.60;2.47;;;26.20;31.60;;;;;;5027938;28;20436;-72
2022/08/24 09:16:31;;;;;;;4.40;1.80;;;26.20;30.40;;;;;;5020945;28;20965;-71
2022/08/24 09:19:33;;;;;;;3.97;1.93;;;26.30;28.20;;;;;;5023162;28;20738;-72
2022/08/24 09:22:21;;;;;;;3.57;2.40;;;26.30;27.80;;;;;;5026754;28;20424;-72
2022/08/24 09:25:25;;;;;;;3.23;2.30;;;26.30;30.00;;;;;;5027860;28;20523;-72
2022/08/24 09:28:20;;;;;;;3.00;1.83;;;26.40;30.10;;;;;;5022913;28;20440;-72
2022/08/24 09:31:29;;;;;;;6.70;1.93;;;26.40;28.30;;;;;;5029692;28;20436;-71
2022/08/24 09:34:30;;;;;;;3.73;1.90;;;26.50;30.40;;;;;;5030296;28;20604;-72
2022/08/24 09:37:36;;;;;;;3.33;1.80;;;26.60;28.70;;;;;;5026879;28;20449;-72
2022/08/24 09:40:43;;;;;;;6.00;2.27;;;26.80;28.00;;;;;;5021591;28;20668;-71
2022/08/24 09:43:58;;;;;;;5.63;2.40;;;26.90;27.00;;;;;;5027558;28;20417;-71
2022/08/24 09:47:25;;;;;;;4.50;1.90;;;27.10;27.20;;;;;;5021050;28;20440;-72
2022/08/24 09:50:36;;;;;;;4.00;1.90;;;27.20;26.80;;;;;;5008117;28;20839;-72
2022/08/24 09:54:03;;;;;;;3.83;2.10;;;27.40;26.20;;;;;;5026540;28;20427;-71
2022/08/24 09:57:00;;;;;;;7.03;2.13;;;27.50;26.10;;;;;;4985138;28;20466;-71
2022/08/24 10:00:12;;;;;;;3.97;1.97;;;27.60;24.90;;;;;;5030336;28;20416;-72
2022/08/24 10:03:11;;;;;;;3.23;1.77;;;27.70;25.60;;;;;;5026988;28;20507;-71
2022/08/24 10:06:16;;;;;;;4.60;2.10;;;27.80;26.30;;;;;;5020509;28;20453;-71
2022/08/24 10:09:20;;;;;;;3.93;2.07;;;27.90;26.20;;;;;;5028705;28;20788;-72
2022/08/24 10:12:22;;;;;;;4.97;2.00;;;28.00;25.40;;;;;;5024991;28;21066;-72
2022/08/24 10:15:11;;;;;;;4.57;2.30;;;28.20;24.70;;;;;;5023107;28;20514;-72
2022/08/24 10:18:23;;;;;;;5.23;2.40;;;28.30;25.10;;;;;;5023814;28;20934;-72
2022/08/24 10:21:18;;;;;;;4.17;2.20;;;28.40;23.70;;;;;;5029051;28;20876;-72
2022/08/24 10:24:47;;;;;;;8.83;2.70;;;28.50;25.10;;;;;;5023234;28;20453;-71
2022/08/24 10:27:56;;;;;;;6.27;2.43;;;28.60;24.20;;;;;;4960443;28;20435;-72
2022/08/24 10:30:59;;;;;;;5.83;2.73;;;28.80;23.80;;;;;;5028316;28;20469;-72
2022/08/24 10:34:01;;;;;;;3.53;2.33;;;28.90;24.40;;;;;;5027331;28;20439;-72
2022/08/24 10:37:14;;;;;;;5.60;2.20;;;29.00;24.30;;;;;;5023666;28;20428;-71
2022/08/24 10:40:20;;;;;;;3.80;2.30;;;29.10;24.30;;;;;;5028923;28;20424;-72
2022/08/24 10:43:36;;;;;;;4.70;1.83;;;29.10;23.00;;;;;;5030481;28;20429;-72
2022/08/24 10:46:45;;;;;;;4.53;2.00;;;29.20;23.20;;;;;;5019718;28;20424;-72
2022/08/24 10:50:10;;;;;;;4.20;1.83;;;29.30;23.80;;;;;;5022170;28;20465;-71
2022/08/24 10:53:20;;;;;;;6.63;2.13;;;29.40;23.00;;;;;;5023046;28;20487;-72
2022/08/24 10:56:10;;;;;;;7.40;2.50;;;29.50;23.10;;;;;;5018551;28;20436;-72
2022/08/24 10:59:15;;;;;;;12.03;2.40;;;29.50;22.80;;;;;;5027626;28;20425;-72
2022/08/24 11:02:05;;;;;;;8.10;2.20;;;29.50;21.80;;;;;;5033639;28;20435;-71
2022/08/24 11:04:56;;;;;;;6.97;4.10;;;29.60;22.20;;;;;;5048880;23;20487;-72
2022/08/24 11:07:57;;;;;;;4.37;2.93;;;29.70;22.00;;;;;;5048710;28;20939;-73
2022/08/24 11:10:43;;;;;;;4.17;2.93;;;29.60;21.90;;;;;;5048538;28;20525;-72
2022/08/24 11:13:29;;;;;;;3.40;2.20;;;29.60;21.90;;;;;;5049344;28;20442;-72
2022/08/24 11:16:24;;;;;;;3.90;2.40;;;29.60;21.90;;;;;;5050875;28;20427;-72
2022/08/24 11:19:13;;;;;;;4.00;2.67;;;29.60;21.90;;;;;;5051088;28;20427;-73
2022/08/24 11:22:00;;;;;;;4.33;2.23;;;29.70;22.00;;;;;;5053938;28;20423;-72
2022/08/24 11:24:48;;;;;;;4.90;2.90;;;29.70;22.00;;;;;;5047539;28;20479;-72
2022/08/24 11:27:37;;;;;;;5.07;2.67;;;29.80;21.60;;;;;;5053899;28;20574;-73
2022/08/24 11:30:27;;;;;;;2.97;2.10;;;29.90;22.90;;;;;;5053355;28;20467;-72
2022/08/24 11:33:29;;;;;;;4.80;2.30;;;30.00;21.00;;;;;;5050411;28;20979;-72
2022/08/24 11:36:15;;;;;;;5.37;2.90;;;30.00;21.60;;;;;;5049663;28;20438;-73
2022/08/24 11:39:19;;;;;;;3.77;2.97;;;30.10;20.30;;;;;;5053104;28;20443;-72
2022/08/24 11:42:15;;;;;;;4.50;2.53;;;30.20;20.70;;;;;;5050450;28;20574;-73
2022/08/24 11:45:10;;;;;;;3.23;2.23;;;30.20;20.60;;;;;;5049246;28;20471;-73
2022/08/24 11:48:25;;;;;;;12.20;2.47;;;30.20;21.00;;;;;;5052831;28;20432;-72
2022/08/24 11:51:22;;;;;;;10.03;3.00;;;30.30;20.40;;;;;;5050463;28;20475;-72
2022/08/24 11:54:18;;;;;;;5.10;2.60;;;30.30;20.10;;;;;;5044185;28;20487;-72
2022/08/24 11:57:14;;;;;;;5.23;2.33;;;30.40;19.70;;;;;;5051409;28;20432;-73
2022/08/24 12:00:05;;;;;;;4.20;2.50;;;30.40;20.20;;;;;;5048581;28;20588;-72
2022/08/24 12:03:01;;;;;;;3.50;2.30;;;30.40;19.50;;;;;;5047300;28;20442;-72
2022/08/24 12:05:54;;;;;;;7.47;2.80;;;30.50;19.50;;;;;;5044317;28;20463;-73
2022/08/24 12:08:50;;;;;;;3.43;2.17;;;30.60;20.40;;;;;;5052565;28;20427;-73
2022/08/24 12:11:48;;;;;;;3.43;2.10;;;30.70;19.90;;;;;;5047906;28;20582;-72
2022/08/24 12:14:40;;;;;;;3.87;2.43;;;30.70;18.70;;;;;;5048674;28;20606;-72
2022/08/24 12:17:33;;;;;;;3.37;2.57;;;30.70;18.60;;;;;;5043266;28;20416;-72
2022/08/24 12:20:26;;;;;;;7.30;2.87;;;30.60;18.10;;;;;;5052711;28;20483;-72
2022/08/24 12:23:19;;;;;;;6.47;2.37;;;30.60;18.80;;;;;;5044289;28;20443;-73
2022/08/24 12:26:12;;;;;;;8.77;3.00;;;30.60;19.20;;;;;;5049788;28;20821;-73
2022/08/24 12:29:05;;;;;;;4.40;2.50;;;30.70;18.60;;;;;;5046787;28;20415;-73
2022/08/24 12:31:55;;;;;;;4.90;2.70;;;30.70;18.40;;;;;;5049293;28;20420;-72
2022/08/24 12:34:50;;;;;;;3.03;2.20;;;30.60;18.70;;;;;;5049267;28;20468;-73
2022/08/24 12:37:38;;;;;;;3.97;2.33;;;30.70;18.20;;;;;;5050768;28;20471;-73
2022/08/24 12:40:29;;;;;;;5.10;2.70;;;30.80;18.80;;;;;;5052055;28;20443;-72
2022/08/24 12:43:24;;;;;;;13.33;2.87;;;30.90;18.00;;;;;;5047076;28;20435;-73
2022/08/24 12:46:12;;;;;;;5.50;3.10;;;31.10;18.60;;;;;;5050192;28;20559;-73
2022/08/24 12:49:04;;;;;;;3.80;2.50;;;31.40;18.10;;;;;;5049608;28;20424;-73
2022/08/24 12:52:08;;;;;;;4.03;2.67;;;31.60;18.40;;;;;;5049451;28;20491;-73
2022/08/24 12:55:39;;;;;;;4.20;2.70;;;31.70;17.50;;;;;;5051254;28;20867;-73
2022/08/24 12:58:57;;;;;;;7.53;2.60;;;31.80;17.20;;;;;;4969801;28;20423;-73
2022/08/24 13:01:47;;;;;;;4.73;2.60;;;32.10;17.30;;;;;;4968148;28;20443;-73
2022/08/24 13:04:41;;;;;;;12.30;2.73;;;32.20;16.70;;;;;;5050523;28;20463;-72
2022/08/24 13:07:30;;;;;;;5.90;2.43;;;32.10;17.10;;;;;;5049794;28;20435;-73
2022/08/24 13:10:37;;;;;;;4.40;2.67;;;32.20;16.80;;;;;;5050495;28;20484;-73
2022/08/24 13:13:45;;;;;;;4.83;2.60;;;32.40;16.00;;;;;;5047055;28;20497;-73
2022/08/24 13:17:07;;;;;;;4.30;2.70;;;32.40;16.70;;;;;;5047696;28;20428;-73
2022/08/24 13:20:20;;;;;;;8.83;2.80;;;32.50;16.20;;;;;;5050701;28;20655;-73
2022/08/24 13:23:14;;;;;;;6.83;2.40;;;32.70;17.30;;;;;;5048631;28;20447;-73
2022/08/24 13:26:22;;;;;;;4.50;2.20;;;32.90;15.70;;;;;;5049167;28;20452;-73
2022/08/24 13:29:09;;;;;;;6.40;2.50;;;33.10;15.30;;;;;;5049083;28;20419;-73
2022/08/24 13:31:58;;;;;;;5.90;2.40;;;33.30;15.10;;;;;;5050925;28;20591;-73
2022/08/24 13:34:46;;;;;;;4.90;2.40;;;33.40;14.20;;;;;;5044004;28;20586;-73
2022/08/24 13:37:32;;;;;;;4.93;2.17;;;33.40;14.30;;;;;;5049914;28;20502;-73
2022/08/24 13:40:22;;;;;;;5.73;2.60;;;33.40;14.60;;;;;;5050815;28;20482;-72
2022/08/24 13:43:14;;;;;;;4.07;2.40;;;33.60;14.90;;;;;;5041229;28;20538;-73
2022/08/24 13:46:14;;;;;;;3.90;2.03;;;33.80;14.70;;;;;;5048826;28;20968;-73
2022/08/24 13:49:03;;;;;;;6.70;2.70;;;34.00;14.30;;;;;;5050180;28;20424;-73
2022/08/24 13:51:54;;;;;;;4.00;2.30;;;34.20;14.40;;;;;;5043378;28;20996;-73
2022/08/24 13:54:50;;;;;;;4.33;2.60;;;34.30;13.50;;;;;;5049791;28;20443;-73
2022/08/24 13:57:41;;;;;;;5.07;2.57;;;34.40;13.60;;;;;;5049784;28;20428;-73
2022/08/24 14:00:39;;;;;;;6.10;2.40;;;34.30;12.80;;;;;;5047513;28;20427;-73
2022/08/24 14:04:04;;;;;;;4.87;2.10;;;34.30;13.60;;;;;;5043807;28;20919;-72
2022/08/24 14:06:55;;;;;;;6.37;2.20;;;34.30;14.00;;;;;;5049771;28;20424;-73
2022/08/24 14:09:48;;;;;;;10.17;2.30;;;34.40;13.80;;;;;;5049467;28;20506;-73
2022/08/24 14:12:43;;;;;;;6.93;2.73;;;34.40;12.90;;;;;;5040255;28;20487;-73
2022/08/24 14:15:48;;;;;;;3.70;2.30;;;34.40;12.90;;;;;;5050020;28;20816;-73
2022/08/24 14:18:43;;;;;;;9.50;2.70;;;34.40;12.90;;;;;;5048431;28;20438;-73
2022/08/24 14:21:40;;;;;;;7.10;2.43;;;34.50;13.60;;;;;;5048143;28;21285;-73
2022/08/24 14:24:31;;;;;;;3.37;2.03;;;34.40;12.90;;;;;;5049249;28;20474;-73
2022/08/24 14:27:37;;;;;;;5.13;2.70;;;34.40;12.90;;;;;;5050017;28;21224;-73
2022/08/24 14:30:45;;;;;;;8.77;2.63;;;34.50;13.00;;;;;;5048322;28;20475;-74
2022/08/24 14:33:33;;;;;;;5.20;2.57;;;34.50;13.00;;;;;;5045784;28;20574;-73
2022/08/24 14:36:21;;;;;;;4.83;2.47;;;34.50;13.00;;;;;;5054085;28;20463;-73
2022/08/24 14:39:19;;;;;;;4.30;2.17;;;34.50;12.40;;;;;;5055959;28;21048;-73
2022/08/24 14:42:16;;;;;;;8.50;2.70;;;34.30;12.80;;;;;;5046726;28;20447;-73
2022/08/24 14:45:08;;;;;;;3.37;2.00;;;34.20;12.10;;;;;;5055447;28;20447;-73
2022/08/24 14:48:04;;;;;;;4.70;1.80;;;34.10;12.60;;;;;;5053590;28;20420;-73
2022/08/24 14:50:57;;;;;;;7.00;2.10;;;34.10;12.70;;;;;;5054845;28;20573;-73
2022/08/24 14:54:00;;;;;;;3.73;1.80;;;34.10;12.40;;;;;;5055770;28;20789;-73
2022/08/24 14:57:02;;;;;;;3.90;2.10;;;34.20;12.80;;;;;;5056632;28;20442;-73
2022/08/24 15:00:03;;;;;;;5.87;2.33;;;34.30;12.40;;;;;;5054064;28;20431;-73
2022/08/24 15:03:24;;;;;;;5.23;2.20;;;34.10;12.50;;;;;;5052788;28;20435;-73